Time,TemperatureF,DewpointF,PressureIn,WindDirection,WindDirectionDegrees,WindSpeedMPH,WindSpeedGustMPH,Humidity,HourlyPrecipIn,Conditions,Clouds,dailyrainin,SoftwareType,DateUTC
2013-02-18 00:00:00,29.3,29.1,30.26,North,0,0.0,1.0,99,0.00,,,0.00,meteohub,2013-02-18 05:00:00,
2013-02-18 00:01:00,29.3,29.1,30.26,North,0,0.0,1.0,99,0.00,,,0.00,meteohub,2013-02-18 05:01:00,
2013-02-18 00:02:00,29.3,29.1,30.26,SW,225,0.0,1.0,99,0.00,,,0.00,meteohub,2013-02-18 05:02:00,
2013-02-18 00:03:00,29.1,28.9,30.26,SW,225,0.0,1.0,99,0.00,,,0.00,meteohub,2013-02-18 05:03:00,
2013-02-18 00:08:00,28.9,28.8,30.26,South,180,0.0,1.0,99,0.00,,,0.00,meteohub,2013-02-18 05:08:00,
2013-02-18 00:13:00,28.9,28.8,30.26,East,90,0.0,1.0,99,0.00,,,0.00,meteohub,2013-02-18 05:13:00,
2013-02-18 00:19:00,28.9,28.8,30.26,West,270,0.0,1.0,99,0.00,,,0.00,meteohub,2013-02-18 05:19:00,
2013-02-18 00:24:00,28.9,28.8,30.27,West,270,0.0,1.0,99,0.00,,,0.00,meteohub,2013-02-18 05:24:00,
2013-02-18 00:29:00,28.8,28.6,30.27,South,180,0.0,1.0,99,0.00,,,0.00,meteohub,2013-02-18 05:29:00,
2013-02-18 00:34:00,28.8,28.6,30.27,South,180,0.0,1.0,99,0.00,,,0.00,meteohub,2013-02-18 05:34:00,
2013-02-18 00:39:00,28.6,28.4,30.27,North,0,1.0,1.0,99,0.00,,,0.00,meteohub,2013-02-18 05:39:00,
2013-02-18 00:44:00,28.4,28.2,30.27,North,0,0.0,1.0,99,0.00,,,0.00,meteohub,2013-02-18 05:44:00,
2013-02-18 00:49:00,28.2,28.0,30.27,South,180,0.0,1.0,99,0.00,,,0.00,meteohub,2013-02-18 05:49:00,
2013-02-18 00:54:00,28.0,27.9,30.27,South,180,1.0,1.0,99,0.00,,,0.00,meteohub,2013-02-18 05:54:00,
2013-02-18 00:59:00,28.2,28.0,30.26,North,0,0.0,1.0,99,0.00,,,0.00,meteohub,2013-02-18 05:59:00,
2013-02-18 01:04:00,28.4,28.2,30.27,South,180,0.0,1.0,99,0.00,,,0.00,meteohub,2013-02-18 06:04:00,
2013-02-18 01:09:00,28.4,28.2,30.27,South,180,0.0,3.0,99,0.00,,,0.00,meteohub,2013-02-18 06:09:00,
2013-02-18 01:14:00,28.4,28.2,30.27,North,0,1.0,3.0,99,0.00,,,0.00,meteohub,2013-02-18 06:14:00,
2013-02-18 01:19:00,28.2,28.0,30.27,SW,225,1.0,3.0,99,0.00,,,0.00,meteohub,2013-02-18 06:19:00,
2013-02-18 01:24:00,28.4,28.2,30.27,SE,135,0.0,1.0,99,0.00,,,0.00,meteohub,2013-02-18 06:24:00,
2013-02-18 01:29:00,28.2,28.0,30.27,SE,135,0.0,2.0,99,0.00,,,0.00,meteohub,2013-02-18 06:29:00,
2013-02-18 01:34:00,27.9,27.7,30.27,SE,135,0.0,2.0,99,0.00,,,0.00,meteohub,2013-02-18 06:34:00,
2013-02-18 01:40:00,27.5,27.3,30.27,SE,135,0.0,2.0,99,0.00,,,0.00,meteohub,2013-02-18 06:40:00,
2013-02-18 01:45:00,27.3,27.1,30.27,South,180,1.0,0.0,99,0.00,,,0.00,meteohub,2013-02-18 06:45:00,
2013-02-18 01:50:00,27.5,27.3,30.27,West,270,0.0,1.0,99,0.00,,,0.00,meteohub,2013-02-18 06:50:00,
2013-02-18 01:55:00,27.7,27.5,30.27,NW,315,1.0,1.0,99,0.00,,,0.00,meteohub,2013-02-18 06:55:00,
2013-02-18 02:00:00,27.7,27.5,30.27,South,180,1.0,1.0,99,0.00,,,0.00,meteohub,2013-02-18 07:00:00,
2013-02-18 02:05:00,27.5,27.3,30.27,South,180,0.0,1.0,99,0.00,,,0.00,meteohub,2013-02-18 07:05:00,
2013-02-18 02:10:00,27.3,27.1,30.27,North,0,1.0,1.0,99,0.00,,,0.00,meteohub,2013-02-18 07:10:00,
2013-02-18 02:15:00,27.3,27.1,30.27,South,180,0.0,1.0,99,0.00,,,0.00,meteohub,2013-02-18 07:15:00,
2013-02-18 02:20:00,27.5,27.3,30.27,South,180,1.0,1.0,99,0.00,,,0.00,meteohub,2013-02-18 07:20:00,
2013-02-18 02:25:00,27.5,27.3,30.26,North,0,1.0,1.0,99,0.00,,,0.00,meteohub,2013-02-18 07:25:00,
2013-02-18 02:30:00,27.7,27.5,30.26,North,0,0.0,1.0,99,0.00,,,0.00,meteohub,2013-02-18 07:30:00,
2013-02-18 02:35:00,27.5,27.3,30.27,South,180,0.0,1.0,99,0.00,,,0.00,meteohub,2013-02-18 07:35:00,
2013-02-18 02:40:00,27.5,27.3,30.27,South,180,0.0,1.0,99,0.00,,,0.00,meteohub,2013-02-18 07:40:00,
2013-02-18 02:45:00,27.5,27.3,30.27,South,180,0.0,1.0,99,0.00,,,0.00,meteohub,2013-02-18 07:45:00,
2013-02-18 02:51:00,27.5,27.3,30.26,South,180,0.0,0.0,99,0.00,,,0.00,meteohub,2013-02-18 07:51:00,
2013-02-18 02:56:00,27.3,27.1,30.27,South,180,0.0,0.0,99,0.00,,,0.00,meteohub,2013-02-18 07:56:00,
2013-02-18 03:01:00,27.1,27.0,30.27,North,0,0.0,1.0,99,0.00,,,0.00,meteohub,2013-02-18 08:01:00,
2013-02-18 03:06:00,27.1,27.0,30.27,South,180,0.0,1.0,99,0.00,,,0.00,meteohub,2013-02-18 08:06:00,
2013-02-18 03:11:00,27.0,26.8,30.27,NW,315,0.0,1.0,99,0.00,,,0.00,meteohub,2013-02-18 08:11:00,
2013-02-18 03:16:00,27.0,26.8,30.27,NW,315,0.0,1.0,99,0.00,,,0.00,meteohub,2013-02-18 08:16:00,
2013-02-18 03:21:00,27.1,27.0,30.27,South,180,1.0,1.0,99,0.00,,,0.00,meteohub,2013-02-18 08:21:00,
2013-02-18 03:26:00,27.1,27.0,30.27,South,180,0.0,1.0,99,0.00,,,0.00,meteohub,2013-02-18 08:26:00,
2013-02-18 03:31:00,27.1,27.0,30.27,East,90,0.0,1.0,99,0.00,,,0.00,meteohub,2013-02-18 08:31:00,
2013-02-18 03:36:00,27.0,26.8,30.27,East,90,0.0,1.0,99,0.00,,,0.00,meteohub,2013-02-18 08:36:00,
2013-02-18 03:41:00,27.0,26.8,30.27,East,90,0.0,1.0,99,0.00,,,0.00,meteohub,2013-02-18 08:41:00,
2013-02-18 03:47:00,27.0,26.8,30.27,West,270,0.0,0.0,99,0.00,,,0.00,meteohub,2013-02-18 08:47:00,
2013-02-18 03:52:00,27.1,27.0,30.27,South,180,0.0,1.0,99,0.00,,,0.00,meteohub,2013-02-18 08:52:00,
2013-02-18 03:57:00,27.1,27.0,30.27,South,180,0.0,1.0,99,0.00,,,0.00,meteohub,2013-02-18 08:57:00,
2013-02-18 04:02:00,26.8,26.6,30.27,South,180,0.0,1.0,99,0.00,,,0.00,meteohub,2013-02-18 09:02:00,
2013-02-18 04:07:00,26.6,26.4,30.26,South,180,0.0,0.0,99,0.00,,,0.00,meteohub,2013-02-18 09:07:00,
2013-02-18 04:12:00,26.6,26.4,30.27,East,90,0.0,0.0,99,0.00,,,0.00,meteohub,2013-02-18 09:12:00,
2013-02-18 04:17:00,26.8,26.6,30.26,North,0,0.0,0.0,99,0.00,,,0.00,meteohub,2013-02-18 09:17:00,
2013-02-18 04:22:00,26.8,26.6,30.27,South,180,0.0,0.0,99,0.00,,,0.00,meteohub,2013-02-18 09:22:00,
2013-02-18 04:27:00,26.8,26.6,30.27,North,0,1.0,0.0,99,0.00,,,0.00,meteohub,2013-02-18 09:27:00,
2013-02-18 04:32:00,27.0,26.8,30.27,North,0,1.0,2.0,99,0.00,,,0.00,meteohub,2013-02-18 09:32:00,
2013-02-18 04:37:00,27.1,27.0,30.27,SW,225,1.0,2.0,99,0.00,,,0.00,meteohub,2013-02-18 09:37:00,
2013-02-18 04:42:00,27.1,27.0,30.27,WNW,293,0.0,2.0,99,0.00,,,0.00,meteohub,2013-02-18 09:42:00,
2013-02-18 04:47:00,27.0,26.8,30.28,North,0,0.0,1.0,99,0.00,,,0.00,meteohub,2013-02-18 09:47:00,
2013-02-18 04:52:00,27.1,27.0,30.28,SW,225,2.0,2.0,99,0.00,,,0.00,meteohub,2013-02-18 09:52:00,
2013-02-18 04:57:00,27.1,27.0,30.28,North,0,1.0,2.0,99,0.00,,,0.00,meteohub,2013-02-18 09:57:00,
2013-02-18 05:02:00,27.3,27.1,30.29,West,270,1.0,2.0,99,0.00,,,0.00,meteohub,2013-02-18 10:02:00,
2013-02-18 05:07:00,27.3,27.1,30.29,SW,225,0.0,2.0,99,0.00,,,0.00,meteohub,2013-02-18 10:07:00,
2013-02-18 05:12:00,27.0,26.8,30.29,NW,315,1.0,2.0,99,0.00,,,0.00,meteohub,2013-02-18 10:12:00,
2013-02-18 05:17:00,27.0,26.8,30.29,North,0,0.0,2.0,99,0.00,,,0.00,meteohub,2013-02-18 10:17:00,
2013-02-18 05:22:00,26.8,26.6,30.29,North,0,0.0,1.0,99,0.00,,,0.00,meteohub,2013-02-18 10:22:00,
2013-02-18 05:27:00,26.6,26.4,30.30,North,0,0.0,1.0,99,0.00,,,0.00,meteohub,2013-02-18 10:27:00,
2013-02-18 05:32:00,26.2,26.1,30.30,SW,225,1.0,0.0,99,0.00,,,0.00,meteohub,2013-02-18 10:32:00,
2013-02-18 05:37:00,26.6,26.4,30.29,West,270,1.0,1.0,99,0.00,,,0.00,meteohub,2013-02-18 10:37:00,
2013-02-18 05:42:00,26.6,26.4,30.30,SE,135,1.0,1.0,99,0.00,,,0.00,meteohub,2013-02-18 10:42:00,
2013-02-18 05:47:00,26.6,26.4,30.30,South,180,0.0,1.0,99,0.00,,,0.00,meteohub,2013-02-18 10:47:00,
2013-02-18 05:52:00,26.6,26.4,30.30,North,0,0.0,1.0,99,0.00,,,0.00,meteohub,2013-02-18 10:52:00,
2013-02-18 05:58:00,26.4,26.2,30.30,South,180,1.0,1.0,99,0.00,,,0.00,meteohub,2013-02-18 10:58:00,
2013-02-18 06:03:00,26.4,26.2,30.30,South,180,0.0,1.0,99,0.00,,,0.00,meteohub,2013-02-18 11:03:00,
2013-02-18 06:08:00,26.4,26.2,30.30,North,0,0.0,1.0,99,0.00,,,0.00,meteohub,2013-02-18 11:08:00,
2013-02-18 06:13:00,26.6,26.4,30.31,South,180,0.0,1.0,99,0.00,,,0.00,meteohub,2013-02-18 11:13:00,
2013-02-18 06:19:00,26.6,26.4,30.30,North,0,1.0,1.0,99,0.00,,,0.00,meteohub,2013-02-18 11:19:00,
2013-02-18 06:24:00,26.6,26.4,30.31,SW,225,0.0,1.0,99,0.00,,,0.00,meteohub,2013-02-18 11:24:00,
2013-02-18 06:29:00,26.4,26.2,30.31,NE,45,0.0,1.0,99,0.00,,,0.00,meteohub,2013-02-18 11:29:00,
2013-02-18 06:34:00,26.4,26.2,30.31,North,0,0.0,1.0,99,0.00,,,0.00,meteohub,2013-02-18 11:34:00,
2013-02-18 06:39:00,26.2,26.1,30.32,SE,135,0.0,1.0,99,0.00,,,0.00,meteohub,2013-02-18 11:39:00,
2013-02-18 06:44:00,26.4,26.2,30.31,SE,135,0.0,1.0,99,0.00,,,0.00,meteohub,2013-02-18 11:44:00,
2013-02-18 06:50:00,26.2,26.1,30.31,SW,225,0.0,1.0,99,0.00,,,0.00,meteohub,2013-02-18 11:50:00,
2013-02-18 06:55:00,26.1,25.9,30.32,SW,225,0.0,0.0,99,0.00,,,0.00,meteohub,2013-02-18 11:55:00,
2013-02-18 07:00:00,26.1,25.9,30.32,SW,225,0.0,0.0,99,0.00,,,0.00,meteohub,2013-02-18 12:00:00,
2013-02-18 07:05:00,26.1,25.9,30.32,SW,225,0.0,0.0,99,0.00,,,0.00,meteohub,2013-02-18 12:05:00,
2013-02-18 07:10:00,26.1,25.9,30.32,North,0,0.0,0.0,99,0.00,,,0.00,meteohub,2013-02-18 12:10:00,
2013-02-18 07:15:00,26.2,26.1,30.32,North,0,0.0,0.0,99,0.00,,,0.00,meteohub,2013-02-18 12:15:00,
2013-02-18 07:20:00,26.6,26.4,30.32,North,0,0.0,0.0,99,0.00,,,0.00,meteohub,2013-02-18 12:20:00,
2013-02-18 07:25:00,26.8,26.6,30.32,North,0,0.0,0.0,99,0.00,,,0.00,meteohub,2013-02-18 12:25:00,
2013-02-18 07:31:00,27.0,26.8,30.32,North,0,0.0,0.0,99,0.00,,,0.00,meteohub,2013-02-18 12:31:00,
2013-02-18 07:36:00,27.0,26.8,30.32,North,0,0.0,0.0,99,0.00,,,0.00,meteohub,2013-02-18 12:36:00,
2013-02-18 07:41:00,27.1,27.0,30.32,North,0,0.0,0.0,99,0.00,,,0.00,meteohub,2013-02-18 12:41:00,
2013-02-18 07:46:00,27.5,27.3,30.32,North,0,0.0,0.0,99,0.00,,,0.00,meteohub,2013-02-18 12:46:00,
2013-02-18 07:51:00,28.0,27.9,30.32,North,0,0.0,0.0,99,0.00,,,0.00,meteohub,2013-02-18 12:51:00,
2013-02-18 07:56:00,28.6,28.4,30.32,South,180,0.0,0.0,99,0.00,,,0.00,meteohub,2013-02-18 12:56:00,
2013-02-18 08:01:00,30.4,30.2,30.33,South,180,1.0,0.0,99,0.00,,,0.00,meteohub,2013-02-18 13:01:00,
2013-02-18 08:06:00,33.8,33.6,30.32,North,0,0.0,1.0,99,0.00,,,0.00,meteohub,2013-02-18 13:06:00,
2013-02-18 08:11:00,37.0,36.9,30.33,South,180,1.0,1.0,99,0.00,,,0.00,meteohub,2013-02-18 13:11:00,
2013-02-18 08:17:00,38.8,38.7,30.33,South,180,0.0,1.0,99,0.00,,,0.00,meteohub,2013-02-18 13:17:00,
2013-02-18 08:22:00,41.5,41.4,30.33,South,180,1.0,1.0,99,0.00,,,0.00,meteohub,2013-02-18 13:22:00,
2013-02-18 08:27:00,44.4,44.2,30.33,South,180,0.0,1.0,99,0.00,,,0.00,meteohub,2013-02-18 13:27:00,
2013-02-18 08:32:00,47.7,47.5,30.33,South,180,0.0,1.0,99,0.00,,,0.00,meteohub,2013-02-18 13:32:00,
2013-02-18 08:37:00,49.5,48.0,30.34,South,180,0.0,1.0,95,0.00,,,0.00,meteohub,2013-02-18 13:37:00,
2013-02-18 08:43:00,50.4,48.2,30.33,SW,225,0.0,0.0,92,0.00,,,0.00,meteohub,2013-02-18 13:43:00,
2013-02-18 08:48:00,51.4,44.4,30.34,SE,135,2.0,0.0,77,0.00,,,0.00,meteohub,2013-02-18 13:48:00,
2013-02-18 08:53:00,51.6,43.9,30.33,SE,135,1.0,2.0,75,0.00,,,0.00,meteohub,2013-02-18 13:53:00,
2013-02-18 08:58:00,52.0,42.4,30.34,SE,135,2.0,2.0,70,0.00,,,0.00,meteohub,2013-02-18 13:58:00,
2013-02-18 09:03:00,51.3,42.3,30.33,South,180,2.0,2.0,71,0.00,,,0.00,meteohub,2013-02-18 14:03:00,
2013-02-18 09:08:00,51.3,41.0,30.34,South,180,2.0,2.0,68,0.00,,,0.00,meteohub,2013-02-18 14:08:00,
2013-02-18 09:13:00,51.4,41.2,30.34,East,90,1.0,2.0,68,0.00,,,0.00,meteohub,2013-02-18 14:13:00,
2013-02-18 09:18:00,52.3,38.8,30.34,North,0,2.0,2.0,60,0.00,,,0.00,meteohub,2013-02-18 14:18:00,
2013-02-18 09:24:00,53.6,40.8,30.34,NE,45,2.0,2.0,62,0.00,,,0.00,meteohub,2013-02-18 14:24:00,
2013-02-18 09:29:00,54.5,41.4,30.34,NW,315,1.0,2.0,61,0.00,,,0.00,meteohub,2013-02-18 14:29:00,
2013-02-18 09:34:00,55.2,42.4,30.34,North,0,2.0,2.0,62,0.00,,,0.00,meteohub,2013-02-18 14:34:00,
2013-02-18 09:39:00,55.6,41.9,30.34,North,0,2.0,2.0,60,0.00,,,0.00,meteohub,2013-02-18 14:39:00,
2013-02-18 09:44:00,56.3,41.7,30.34,SE,135,1.0,2.0,58,0.00,,,0.00,meteohub,2013-02-18 14:44:00,
2013-02-18 09:49:00,56.3,40.8,30.34,East,90,2.0,2.0,56,0.00,,,0.00,meteohub,2013-02-18 14:49:00,
2013-02-18 09:55:00,56.5,39.6,30.34,North,0,2.0,3.0,53,0.00,,,0.00,meteohub,2013-02-18 14:55:00,
2013-02-18 10:00:00,55.8,37.4,30.35,SE,135,3.0,3.0,50,0.00,,,0.00,meteohub,2013-02-18 15:00:00,
2013-02-18 10:05:00,55.2,36.3,30.34,East,90,4.0,4.0,49,0.00,,,0.00,meteohub,2013-02-18 15:05:00,
2013-02-18 10:10:00,54.9,35.6,30.35,NNW,338,2.0,4.0,48,0.00,,,0.00,meteohub,2013-02-18 15:10:00,
2013-02-18 10:15:00,54.9,33.4,30.35,SE,135,2.0,5.0,44,0.00,,,0.00,meteohub,2013-02-18 15:15:00,
2013-02-18 10:20:00,54.7,33.3,30.35,SW,225,2.0,6.0,44,0.00,,,0.00,meteohub,2013-02-18 15:20:00,
2013-02-18 10:25:00,55.4,33.8,30.34,SE,135,4.0,7.0,44,0.00,,,0.00,meteohub,2013-02-18 15:25:00,
2013-02-18 10:30:00,55.6,33.4,30.34,South,180,4.0,7.0,43,0.00,,,0.00,meteohub,2013-02-18 15:30:00,
2013-02-18 10:35:00,55.9,35.4,30.34,East,90,4.0,7.0,46,0.00,,,0.00,meteohub,2013-02-18 15:35:00,
2013-02-18 10:40:00,56.1,34.0,30.35,SE,135,4.0,7.0,43,0.00,,,0.00,meteohub,2013-02-18 15:40:00,
2013-02-18 10:46:00,55.8,35.8,30.35,ESE,113,5.0,7.0,47,0.00,,,0.00,meteohub,2013-02-18 15:46:00,
2013-02-18 10:51:00,55.8,34.2,30.35,SW,225,4.0,7.0,44,0.00,,,0.00,meteohub,2013-02-18 15:51:00,
2013-02-18 10:56:00,55.6,32.9,30.35,North,0,3.0,7.0,42,0.00,,,0.00,meteohub,2013-02-18 15:56:00,
2013-02-18 11:01:00,55.8,32.4,30.35,West,270,2.0,7.0,41,0.00,,,0.00,meteohub,2013-02-18 16:01:00,
2013-02-18 11:06:00,55.4,32.7,30.35,SW,225,2.0,6.0,42,0.00,,,0.00,meteohub,2013-02-18 16:06:00,
2013-02-18 11:11:00,55.8,34.2,30.35,North,0,4.0,8.0,44,0.00,,,0.00,meteohub,2013-02-18 16:11:00,
2013-02-18 11:16:00,56.7,32.5,30.35,SW,225,4.0,8.0,40,0.00,,,0.00,meteohub,2013-02-18 16:16:00,
2013-02-18 11:22:00,58.1,34.0,30.36,NW,315,2.0,8.0,40,0.00,,,0.00,meteohub,2013-02-18 16:22:00,
2013-02-18 11:27:00,59.0,32.7,30.36,NW,315,5.0,5.0,37,0.00,,,0.00,meteohub,2013-02-18 16:27:00,
2013-02-18 11:32:00,58.8,33.3,30.35,SE,135,3.0,5.0,38,0.00,,,0.00,meteohub,2013-02-18 16:32:00,
2013-02-18 11:37:00,59.2,33.6,30.35,SE,135,2.0,5.0,38,0.00,,,0.00,meteohub,2013-02-18 16:37:00,
2013-02-18 11:42:00,59.0,34.2,30.35,NW,315,3.0,7.0,39,0.00,,,0.00,meteohub,2013-02-18 16:42:00,
2013-02-18 11:47:00,58.8,35.8,30.35,SW,225,4.0,7.0,42,0.00,,,0.00,meteohub,2013-02-18 16:47:00,
2013-02-18 11:52:00,58.5,34.9,30.35,West,270,4.0,8.0,41,0.00,,,0.00,meteohub,2013-02-18 16:52:00,
2013-02-18 11:57:00,58.3,32.2,30.35,NW,315,2.0,8.0,37,0.00,,,0.00,meteohub,2013-02-18 16:57:00,
2013-02-18 12:02:00,58.8,34.5,30.35,NW,315,4.0,8.0,40,0.00,,,0.00,meteohub,2013-02-18 17:02:00,
2013-02-18 12:07:00,59.2,33.6,30.34,South,180,4.0,6.0,38,0.00,,,0.00,meteohub,2013-02-18 17:07:00,
2013-02-18 12:12:00,59.2,36.1,30.35,SE,135,5.0,6.0,42,0.00,,,0.00,meteohub,2013-02-18 17:12:00,
2013-02-18 12:17:00,59.4,34.3,30.34,NW,315,3.0,6.0,39,0.00,,,0.00,meteohub,2013-02-18 17:17:00,
2013-02-18 12:23:00,59.5,35.8,30.34,SE,135,2.0,6.0,41,0.00,,,0.00,meteohub,2013-02-18 17:23:00,
2013-02-18 12:28:00,60.1,35.1,30.34,SE,135,2.0,5.0,39,0.00,,,0.00,meteohub,2013-02-18 17:28:00,
2013-02-18 12:33:00,61.2,37.9,30.33,NW,315,4.0,4.0,42,0.00,,,0.00,meteohub,2013-02-18 17:33:00,
2013-02-18 12:38:00,62.4,36.5,30.32,SE,135,7.0,7.0,38,0.00,,,0.00,meteohub,2013-02-18 17:38:00,
2013-02-18 12:44:00,61.9,36.7,30.32,South,180,5.0,7.0,39,0.00,,,0.00,meteohub,2013-02-18 17:44:00,
2013-02-18 12:49:00,62.8,36.9,30.32,NW,315,2.0,7.0,38,0.00,,,0.00,meteohub,2013-02-18 17:49:00,
2013-02-18 12:54:00,63.7,37.6,30.32,SSW,203,2.0,7.0,38,0.00,,,0.00,meteohub,2013-02-18 17:54:00,
2013-02-18 13:00:00,65.7,36.5,30.31,SE,135,4.0,6.0,34,0.00,,,0.00,meteohub,2013-02-18 18:00:00,
2013-02-18 13:05:00,64.9,40.1,30.31,SE,135,6.0,7.0,40,0.00,,,0.00,meteohub,2013-02-18 18:05:00,
2013-02-18 13:10:00,64.8,37.2,30.30,East,90,5.0,7.0,36,0.00,,,0.00,meteohub,2013-02-18 18:10:00,
2013-02-18 13:15:00,64.8,35.8,30.30,ESE,113,8.0,8.0,34,0.00,,,0.00,meteohub,2013-02-18 18:15:00,
2013-02-18 13:21:00,63.7,36.1,30.30,SW,225,4.0,8.0,36,0.00,,,0.00,meteohub,2013-02-18 18:21:00,
2013-02-18 13:26:00,64.0,35.8,30.30,SE,135,4.0,8.0,35,0.00,,,0.00,meteohub,2013-02-18 18:26:00,
2013-02-18 13:31:00,63.3,35.2,30.30,West,270,5.0,8.0,35,0.00,,,0.00,meteohub,2013-02-18 18:31:00,
2013-02-18 13:36:00,63.3,36.7,30.30,SW,225,2.0,8.0,37,0.00,,,0.00,meteohub,2013-02-18 18:36:00,
2013-02-18 13:41:00,64.0,37.9,30.30,NW,315,4.0,8.0,38,0.00,,,0.00,meteohub,2013-02-18 18:41:00,
2013-02-18 13:46:00,64.4,36.1,30.30,NE,45,12.0,12.0,35,0.00,,,0.00,meteohub,2013-02-18 18:46:00,
2013-02-18 13:51:00,64.2,35.2,30.30,West,270,2.0,12.0,34,0.00,,,0.00,meteohub,2013-02-18 18:51:00,
2013-02-18 13:57:00,63.0,36.3,30.29,NW,315,2.0,12.0,37,0.00,,,0.00,meteohub,2013-02-18 18:57:00,
2013-02-18 14:02:00,64.2,36.0,30.29,ESE,113,7.0,12.0,35,0.00,,,0.00,meteohub,2013-02-18 19:02:00,
2013-02-18 14:07:00,64.2,36.0,30.29,NW,315,4.0,8.0,35,0.00,,,0.00,meteohub,2013-02-18 19:07:00,
2013-02-18 14:12:00,64.4,35.4,30.28,SW,225,6.0,8.0,34,0.00,,,0.00,meteohub,2013-02-18 19:12:00,
2013-02-18 14:17:00,64.2,37.4,30.28,SSE,158,8.0,8.0,37,0.00,,,0.00,meteohub,2013-02-18 19:17:00,
2013-02-18 14:22:00,63.5,36.1,30.28,North,0,5.0,8.0,36,0.00,,,0.00,meteohub,2013-02-18 19:22:00,
2013-02-18 14:27:00,63.1,37.8,30.28,SE,135,8.0,8.0,39,0.00,,,0.00,meteohub,2013-02-18 19:27:00,
2013-02-18 14:32:00,62.6,36.7,30.28,East,90,4.0,9.0,38,0.00,,,0.00,meteohub,2013-02-18 19:32:00,
2013-02-18 14:37:00,63.5,36.1,30.28,NW,315,7.0,9.0,36,0.00,,,0.00,meteohub,2013-02-18 19:37:00,
2013-02-18 14:42:00,63.3,35.2,30.28,North,0,8.0,9.0,35,0.00,,,0.00,meteohub,2013-02-18 19:42:00,
2013-02-18 14:48:00,61.5,35.1,30.28,SE,135,3.0,8.0,37,0.00,,,0.00,meteohub,2013-02-18 19:48:00,
2013-02-18 14:53:00,60.1,33.8,30.27,NW,315,4.0,11.0,37,0.00,,,0.00,meteohub,2013-02-18 19:53:00,
2013-02-18 14:59:00,59.4,33.8,30.27,NW,315,8.0,11.0,38,0.00,,,0.00,meteohub,2013-02-18 19:59:00,
2013-02-18 15:04:00,58.8,35.2,30.27,South,180,4.0,11.0,41,0.00,,,0.00,meteohub,2013-02-18 20:04:00,
2013-02-18 15:09:00,59.5,35.2,30.27,NW,315,4.0,8.0,40,0.00,,,0.00,meteohub,2013-02-18 20:09:00,
2013-02-18 15:14:00,61.3,37.4,30.27,East,90,3.0,8.0,41,0.00,,,0.00,meteohub,2013-02-18 20:14:00,
2013-02-18 15:19:00,63.3,37.2,30.27,West,270,5.0,8.0,38,0.00,,,0.00,meteohub,2013-02-18 20:19:00,
2013-02-18 15:25:00,64.0,35.8,30.28,South,180,8.0,11.0,35,0.00,,,0.00,meteohub,2013-02-18 20:25:00,
2013-02-18 15:30:00,62.6,36.7,30.27,ESE,113,7.0,11.0,38,0.00,,,0.00,meteohub,2013-02-18 20:30:00,
2013-02-18 15:35:00,63.1,37.8,30.28,ESE,113,4.0,11.0,39,0.00,,,0.00,meteohub,2013-02-18 20:35:00,
2013-02-18 15:40:00,63.9,38.5,30.28,West,270,10.0,11.0,39,0.00,,,0.00,meteohub,2013-02-18 20:40:00,
2013-02-18 15:45:00,64.4,38.3,30.28,West,270,5.0,11.0,38,0.00,,,0.00,meteohub,2013-02-18 20:45:00,
2013-02-18 15:50:00,64.0,37.9,30.28,East,90,8.0,10.0,38,0.00,,,0.00,meteohub,2013-02-18 20:50:00,
2013-02-18 15:56:00,62.4,35.8,30.27,East,90,4.0,11.0,37,0.00,,,0.00,meteohub,2013-02-18 20:56:00,
2013-02-18 16:01:00,63.3,36.0,30.28,ENE,68,8.0,11.0,36,0.00,,,0.00,meteohub,2013-02-18 21:01:00,
2013-02-18 16:06:00,62.8,36.9,30.28,South,180,7.0,10.0,38,0.00,,,0.00,meteohub,2013-02-18 21:06:00,
2013-02-18 16:11:00,61.2,34.7,30.28,East,90,5.0,9.0,37,0.00,,,0.00,meteohub,2013-02-18 21:11:00,
2013-02-18 16:16:00,60.6,34.9,30.28,SE,135,4.0,9.0,38,0.00,,,0.00,meteohub,2013-02-18 21:16:00,
2013-02-18 16:21:00,59.5,34.0,30.28,North,0,8.0,10.0,38,0.00,,,0.00,meteohub,2013-02-18 21:21:00,
2013-02-18 16:26:00,58.6,35.6,30.28,SW,225,2.0,12.0,42,0.00,,,0.00,meteohub,2013-02-18 21:26:00,
2013-02-18 16:32:00,57.9,34.9,30.27,East,90,4.0,12.0,42,0.00,,,0.00,meteohub,2013-02-18 21:32:00,
2013-02-18 16:37:00,55.8,33.6,30.28,SE,135,4.0,9.0,43,0.00,,,0.00,meteohub,2013-02-18 21:37:00,
2013-02-18 16:42:00,56.3,35.8,30.28,South,180,6.0,10.0,46,0.00,,,0.00,meteohub,2013-02-18 21:42:00,
2013-02-18 16:47:00,57.6,35.8,30.28,SE,135,2.0,10.0,44,0.00,,,0.00,meteohub,2013-02-18 21:47:00,
2013-02-18 16:53:00,61.0,37.8,30.28,West,270,2.0,8.0,42,0.00,,,0.00,meteohub,2013-02-18 21:53:00,
2013-02-18 16:58:00,63.5,38.1,30.28,West,270,3.0,6.0,39,0.00,,,0.00,meteohub,2013-02-18 21:58:00,
2013-02-18 17:03:00,63.7,38.3,30.27,East,90,4.0,6.0,39,0.00,,,0.00,meteohub,2013-02-18 22:03:00,
2013-02-18 17:08:00,61.2,36.0,30.27,NE,45,3.0,6.0,39,0.00,,,0.00,meteohub,2013-02-18 22:08:00,
2013-02-18 17:13:00,60.8,36.9,30.27,East,90,2.0,6.0,41,0.00,,,0.00,meteohub,2013-02-18 22:13:00,
2013-02-18 17:18:00,61.0,37.0,30.27,SSE,158,2.0,5.0,41,0.00,,,0.00,meteohub,2013-02-18 22:18:00,
2013-02-18 17:24:00,61.5,37.6,30.27,NE,45,1.0,5.0,41,0.00,,,0.00,meteohub,2013-02-18 22:24:00,
2013-02-18 17:29:00,61.2,37.2,30.27,SE,135,4.0,5.0,41,0.00,,,0.00,meteohub,2013-02-18 22:29:00,
2013-02-18 17:34:00,59.9,36.7,30.27,North,0,4.0,6.0,42,0.00,,,0.00,meteohub,2013-02-18 22:34:00,
2013-02-18 17:39:00,58.6,35.6,30.26,NW,315,3.0,6.0,42,0.00,,,0.00,meteohub,2013-02-18 22:39:00,
2013-02-18 17:44:00,58.5,36.0,30.27,WNW,293,6.0,6.0,43,0.00,,,0.00,meteohub,2013-02-18 22:44:00,
2013-02-18 17:50:00,56.5,35.4,30.27,SE,135,2.0,5.0,45,0.00,,,0.00,meteohub,2013-02-18 22:50:00,
2013-02-18 17:55:00,55.4,35.4,30.26,East,90,3.0,6.0,47,0.00,,,0.00,meteohub,2013-02-18 22:55:00,
2013-02-18 18:00:00,53.8,35.1,30.27,SSE,158,2.0,6.0,49,0.00,,,0.00,meteohub,2013-02-18 23:00:00,
2013-02-18 18:05:00,52.0,34.9,30.27,NE,45,2.0,5.0,52,0.00,,,0.00,meteohub,2013-02-18 23:05:00,
2013-02-18 18:11:00,50.9,34.3,30.26,West,270,2.0,5.0,53,0.00,,,0.00,meteohub,2013-02-18 23:11:00,
2013-02-18 18:16:00,50.2,34.2,30.26,North,0,1.0,5.0,54,0.00,,,0.00,meteohub,2013-02-18 23:16:00,
2013-02-18 18:21:00,49.5,34.9,30.26,NE,45,2.0,4.0,57,0.00,,,0.00,meteohub,2013-02-18 23:21:00,
2013-02-18 18:27:00,49.1,34.5,30.26,North,0,1.0,7.0,57,0.00,,,0.00,meteohub,2013-02-18 23:27:00,
2013-02-18 18:32:00,48.6,34.0,30.26,SE,135,1.0,7.0,57,0.00,,,0.00,meteohub,2013-02-18 23:32:00,
2013-02-18 18:37:00,48.2,33.6,30.26,North,0,1.0,7.0,57,0.00,,,0.00,meteohub,2013-02-18 23:37:00,
2013-02-18 18:42:00,47.7,34.0,30.26,SE,135,1.0,2.0,59,0.00,,,0.00,meteohub,2013-02-18 23:42:00,
2013-02-18 18:47:00,47.1,34.7,30.26,South,180,1.0,2.0,62,0.00,,,0.00,meteohub,2013-02-18 23:47:00,
2013-02-18 18:52:00,46.2,35.1,30.26,South,180,0.0,2.0,65,0.00,,,0.00,meteohub,2013-02-18 23:52:00,
2013-02-18 18:57:00,45.3,35.1,30.26,SE,135,0.0,1.0,67,0.00,,,0.00,meteohub,2013-02-18 23:57:00,
2013-02-18 19:02:00,44.4,34.5,30.26,SE,135,0.0,1.0,68,0.00,,,0.00,meteohub,2013-02-19 00:02:00,
2013-02-18 19:07:00,43.9,34.3,30.26,SE,135,0.0,0.0,69,0.00,,,0.00,meteohub,2013-02-19 00:07:00,
2013-02-18 19:12:00,43.2,35.1,30.26,West,270,0.0,0.0,73,0.00,,,0.00,meteohub,2013-02-19 00:12:00,
2013-02-18 19:17:00,43.0,35.2,30.26,SW,225,0.0,1.0,74,0.00,,,0.00,meteohub,2013-02-19 00:17:00,
2013-02-18 19:23:00,42.6,34.9,30.26,SW,225,0.0,1.0,74,0.00,,,0.00,meteohub,2013-02-19 00:23:00,
2013-02-18 19:28:00,42.3,34.9,30.26,SW,225,0.0,1.0,75,0.00,,,0.00,meteohub,2013-02-19 00:28:00,
2013-02-18 19:33:00,41.9,35.8,30.26,SW,225,0.0,1.0,79,0.00,,,0.00,meteohub,2013-02-19 00:33:00,
2013-02-18 19:38:00,41.5,35.8,30.25,SW,225,0.0,0.0,80,0.00,,,0.00,meteohub,2013-02-19 00:38:00,
2013-02-18 19:43:00,41.2,35.4,30.25,SW,225,0.0,0.0,80,0.00,,,0.00,meteohub,2013-02-19 00:43:00,
2013-02-18 19:49:00,40.8,35.8,30.25,SW,225,0.0,0.0,82,0.00,,,0.00,meteohub,2013-02-19 00:49:00,
2013-02-18 19:54:00,40.6,36.1,30.25,SW,225,0.0,0.0,84,0.00,,,0.00,meteohub,2013-02-19 00:54:00,
2013-02-18 19:59:00,40.6,36.9,30.25,North,0,0.0,0.0,86,0.00,,,0.00,meteohub,2013-02-19 00:59:00,
2013-02-18 20:04:00,40.3,36.1,30.25,North,0,0.0,0.0,85,0.00,,,0.00,meteohub,2013-02-19 01:04:00,
2013-02-18 20:10:00,40.1,36.5,30.25,West,270,0.0,0.0,87,0.00,,,0.00,meteohub,2013-02-19 01:10:00,
2013-02-18 20:15:00,39.9,36.1,30.25,West,270,0.0,1.0,86,0.00,,,0.00,meteohub,2013-02-19 01:15:00,
2013-02-18 20:20:00,39.7,36.5,30.25,South,180,0.0,1.0,88,0.00,,,0.00,meteohub,2013-02-19 01:20:00,
2013-02-18 20:25:00,39.6,36.9,30.24,SW,225,0.0,0.0,90,0.00,,,0.00,meteohub,2013-02-19 01:25:00,
2013-02-18 20:30:00,39.6,36.9,30.24,South,180,0.0,1.0,90,0.00,,,0.00,meteohub,2013-02-19 01:30:00,
2013-02-18 20:36:00,39.4,37.2,30.24,South,180,0.0,1.0,92,0.00,,,0.00,meteohub,2013-02-19 01:36:00,
2013-02-18 20:41:00,39.4,37.6,30.23,South,180,0.0,1.0,93,0.00,,,0.00,meteohub,2013-02-19 01:41:00,
2013-02-18 20:46:00,39.2,37.9,30.23,NW,315,1.0,0.0,95,0.00,,,0.00,meteohub,2013-02-19 01:46:00,
2013-02-18 20:51:00,39.0,37.9,30.23,SE,135,0.0,1.0,96,0.00,,,0.00,meteohub,2013-02-19 01:51:00,
2013-02-18 20:57:00,39.0,37.9,30.23,SE,135,0.0,1.0,96,0.00,,,0.00,meteohub,2013-02-19 01:57:00,
2013-02-18 21:02:00,39.0,37.9,30.22,SE,135,0.0,1.0,96,0.00,,,0.00,meteohub,2013-02-19 02:02:00,
2013-02-18 21:07:00,39.2,39.0,30.22,SW,225,1.0,1.0,99,0.00,,,0.00,meteohub,2013-02-19 02:07:00,
2013-02-18 21:12:00,39.4,39.2,30.22,SE,135,1.0,1.0,99,0.00,,,0.00,meteohub,2013-02-19 02:12:00,
2013-02-18 21:17:00,39.6,39.4,30.22,SE,135,0.0,1.0,99,0.00,,,0.00,meteohub,2013-02-19 02:17:00,
2013-02-18 21:22:00,39.4,39.2,30.22,West,270,1.0,1.0,99,0.00,,,0.00,meteohub,2013-02-19 02:22:00,
2013-02-18 21:27:00,39.4,39.2,30.22,South,180,0.0,1.0,99,0.00,,,0.00,meteohub,2013-02-19 02:27:00,
2013-02-18 21:33:00,39.2,39.0,30.22,North,0,0.0,1.0,99,0.00,,,0.00,meteohub,2013-02-19 02:33:00,
2013-02-18 21:38:00,39.2,39.0,30.21,North,0,0.0,1.0,99,0.00,,,0.00,meteohub,2013-02-19 02:38:00,
2013-02-18 21:43:00,39.0,38.8,30.21,South,180,0.0,0.0,99,0.00,,,0.00,meteohub,2013-02-19 02:43:00,
2013-02-18 21:48:00,39.0,38.8,30.21,South,180,0.0,0.0,99,0.00,,,0.00,meteohub,2013-02-19 02:48:00,
2013-02-18 21:53:00,38.7,38.5,30.21,South,180,0.0,0.0,99,0.00,,,0.00,meteohub,2013-02-19 02:53:00,
2013-02-18 21:59:00,38.7,38.5,30.21,North,0,0.0,0.0,99,0.00,,,0.00,meteohub,2013-02-19 02:59:00,
2013-02-18 22:04:00,38.5,38.3,30.21,North,0,0.0,0.0,99,0.00,,,0.00,meteohub,2013-02-19 03:04:00,
2013-02-18 22:09:00,38.1,37.9,30.21,North,0,0.0,0.0,99,0.00,,,0.00,meteohub,2013-02-19 03:09:00,
2013-02-18 22:14:00,37.9,37.8,30.21,North,0,0.0,0.0,99,0.00,,,0.00,meteohub,2013-02-19 03:14:00,
2013-02-18 22:20:00,37.6,37.4,30.21,South,180,0.0,0.0,99,0.00,,,0.00,meteohub,2013-02-19 03:20:00,
2013-02-18 22:25:00,37.6,37.4,30.20,South,180,0.0,0.0,99,0.00,,,0.00,meteohub,2013-02-19 03:25:00,
2013-02-18 22:30:00,37.4,37.2,30.21,South,180,0.0,0.0,99,0.00,,,0.00,meteohub,2013-02-19 03:30:00,
2013-02-18 22:35:00,37.4,37.2,30.20,South,180,0.0,0.0,99,0.00,,,0.00,meteohub,2013-02-19 03:35:00,
2013-02-18 22:41:00,37.6,37.4,30.19,SE,135,0.0,0.0,99,0.00,,,0.00,meteohub,2013-02-19 03:41:00,
2013-02-18 22:46:00,37.4,37.2,30.19,SE,135,0.0,0.0,99,0.00,,,0.00,meteohub,2013-02-19 03:46:00,
2013-02-18 22:51:00,37.2,37.0,30.19,SE,135,0.0,0.0,99,0.00,,,0.00,meteohub,2013-02-19 03:51:00,
2013-02-18 22:56:00,37.0,36.9,30.19,SE,135,0.0,0.0,99,0.00,,,0.00,meteohub,2013-02-19 03:56:00,
2013-02-18 23:01:00,37.0,36.9,30.19,SE,135,0.0,0.0,99,0.00,,,0.00,meteohub,2013-02-19 04:01:00,
2013-02-18 23:06:00,36.9,36.7,30.19,SE,135,0.0,0.0,99,0.00,,,0.00,meteohub,2013-02-19 04:06:00,
2013-02-18 23:12:00,37.2,37.0,30.18,SE,135,0.0,0.0,99,0.00,,,0.00,meteohub,2013-02-19 04:12:00,
2013-02-18 23:17:00,37.2,37.0,30.18,SE,135,0.0,0.0,99,0.00,,,0.00,meteohub,2013-02-19 04:17:00,
2013-02-18 23:22:00,37.4,37.2,30.18,SE,135,0.0,0.0,99,0.00,,,0.00,meteohub,2013-02-19 04:22:00,
2013-02-18 23:27:00,37.2,37.0,30.18,North,0,0.0,0.0,99,0.00,,,0.00,meteohub,2013-02-19 04:27:00,
2013-02-18 23:32:00,37.0,36.9,30.18,North,0,0.0,0.0,99,0.00,,,0.00,meteohub,2013-02-19 04:32:00,
2013-02-18 23:37:00,37.0,36.9,30.18,North,0,0.0,0.0,99,0.00,,,0.00,meteohub,2013-02-19 04:37:00,
2013-02-18 23:42:00,37.0,36.9,30.18,North,0,0.0,0.0,99,0.00,,,0.00,meteohub,2013-02-19 04:42:00,
2013-02-18 23:47:00,37.0,36.9,30.19,North,0,0.0,0.0,99,0.00,,,0.00,meteohub,2013-02-19 04:47:00,
2013-02-18 23:53:00,36.9,36.7,30.19,North,0,0.0,0.0,99,0.00,,,0.00,meteohub,2013-02-19 04:53:00,
2013-02-18 23:58:00,36.9,36.7,30.19,South,180,0.0,0.0,99,0.00,,,0.00,meteohub,2013-02-19 04:58:00,